Time;durP1;ratioP1;P1;durP2;ratioP2;P2;SDS_P1;SDS_P2;PMS_P1;PMS_P2;Temp;Humidity;BMP_temperature;BMP_pressure;BME280_temperature;BME280_humidity;BME280_pressure;Samples;Min_cycle;Max_cycle;Signal;HPM_P1;HPM_P2
2023/01/17 00:02:04;;;;;;;1.97;0.70;;;2.20;53.00;;;;;;4991505;28;47026;-67
2023/01/17 00:10:06;;;;;;;1.33;0.60;;;2.20;53.40;;;;;;4992175;28;46443;-65
2023/01/17 00:12:32;;;;;;;0.90;0.60;;;2.10;53.40;;;;;;4992478;28;46550;-68
2023/01/17 00:14:59;;;;;;;1.02;0.70;;;2.10;53.50;;;;;;4992533;28;46444;-68
2023/01/17 00:17:27;;;;;;;0.90;0.60;;;2.10;53.70;;;;;;4991550;28;46351;-66
2023/01/17 00:26:01;;;;;;;0.90;0.70;;;2.00;54.10;;;;;;4992017;28;46785;-67
2023/01/17 01:35:26;;;;;;;3.65;0.80;;;1.80;54.40;;;;;;4991621;28;46575;-69
2023/01/17 01:37:51;;;;;;;1.43;0.73;;;1.80;54.40;;;;;;4991168;28;46394;-68
2023/01/17 01:40:18;;;;;;;1.10;0.70;;;1.80;54.60;;;;;;4992377;28;46430;-69
2023/01/17 01:42:53;;;;;;;1.42;0.80;;;1.80;54.70;;;;;;4993081;28;46523;-70
2023/01/17 01:45:31;;;;;;;4.05;0.82;;;1.70;54.80;;;;;;4991536;28;45906;-70
2023/01/17 01:48:00;;;;;;;1.20;0.70;;;1.70;55.00;;;;;;4991296;28;47076;-68
2023/01/17 01:50:27;;;;;;;1.63;0.80;;;1.70;55.00;;;;;;4990212;28;47045;-70
2023/01/17 01:52:57;;;;;;;1.73;0.80;;;1.60;55.00;;;;;;4990986;28;46445;-69
2023/01/17 01:55:30;;;;;;;1.00;0.70;;;1.60;55.10;;;;;;4991266;28;46486;-70
2023/01/17 01:58:00;;;;;;;2.33;0.80;;;1.60;55.20;;;;;;4989994;28;47688;-70
2023/01/17 02:00:32;;;;;;;1.05;0.70;;;1.50;55.10;;;;;;4989983;28;46474;-70
2023/01/17 02:03:00;;;;;;;1.52;0.70;;;1.60;55.30;;;;;;4991683;28;46508;-70
2023/01/17 02:05:27;;;;;;;1.00;0.60;;;1.60;55.30;;;;;;4990541;28;45985;-70
2023/01/17 02:08:03;;;;;;;3.85;0.88;;;1.60;55.40;;;;;;4990798;28;46103;-70
2023/01/17 02:10:40;;;;;;;2.05;0.70;;;1.50;55.20;;;;;;4990089;28;46357;-69
2023/01/17 02:13:07;;;;;;;1.65;0.70;;;1.50;55.20;;;;;;4991051;28;46396;-69
2023/01/17 02:16:00;;;;;;;1.88;0.90;;;1.50;55.50;;;;;;4990332;28;46560;-70
2023/01/17 02:18:59;;;;;;;1.88;0.68;;;1.50;55.50;;;;;;4991526;28;46370;-70
2023/01/17 02:21:32;;;;;;;2.20;0.80;;;1.50;55.50;;;;;;4991067;28;46536;-70
2023/01/17 02:24:10;;;;;;;1.15;0.70;;;1.50;55.50;;;;;;4991917;28;46422;-68
2023/01/17 02:27:02;;;;;;;1.27;0.68;;;1.50;55.50;;;;;;4992295;28;46406;-68
2023/01/17 02:29:49;;;;;;;1.23;0.88;;;1.50;55.60;;;;;;4991339;28;46427;-69
2023/01/17 02:32:45;;;;;;;3.90;0.90;;;1.50;55.60;;;;;;4990080;28;46525;-68
2023/01/17 02:35:27;;;;;;;1.10;0.70;;;1.40;55.80;;;;;;4989919;28;46378;-69
2023/01/17 02:38:20;;;;;;;1.13;0.63;;;1.40;55.80;;;;;;4988744;28;46376;-68
2023/01/17 02:40:55;;;;;;;1.23;0.82;;;1.30;55.90;;;;;;4990793;28;46327;-68
2023/01/17 02:43:23;;;;;;;1.60;0.70;;;1.30;56.00;;;;;;4992672;28;46487;-68
2023/01/17 02:45:49;;;;;;;2.55;0.93;;;1.30;56.00;;;;;;4991573;28;46430;-67
2023/01/17 02:48:20;;;;;;;2.50;0.80;;;1.30;56.10;;;;;;4990163;28;46367;-69
2023/01/17 02:50:52;;;;;;;1.33;0.82;;;1.20;56.20;;;;;;4991134;28;47252;-68
2023/01/17 02:53:34;;;;;;;3.20;0.70;;;1.20;56.20;;;;;;4991694;28;46358;-70
2023/01/17 02:56:32;;;;;;;2.25;0.80;;;1.10;56.10;;;;;;4990929;28;46455;-68
2023/01/17 02:59:13;;;;;;;2.38;0.90;;;1.10;56.40;;;;;;4990507;28;46501;-68
2023/01/17 03:02:09;;;;;;;1.00;0.70;;;1.20;56.40;;;;;;4991764;28;46437;-70
2023/01/17 03:04:48;;;;;;;3.35;0.80;;;1.10;56.20;;;;;;4989406;28;46471;-68
2023/01/17 03:07:21;;;;;;;1.77;0.80;;;1.10;56.30;;;;;;4990096;28;46373;-71
2023/01/17 03:09:52;;;;;;;0.90;0.70;;;1.00;56.50;;;;;;4987437;28;46366;-67
2023/01/17 03:12:19;;;;;;;1.60;0.70;;;1.00;56.70;;;;;;4989011;28;46477;-69
2023/01/17 03:14:45;;;;;;;1.42;0.60;;;1.00;56.60;;;;;;4989427;28;46383;-69
2023/01/17 03:17:10;;;;;;;1.00;0.90;;;1.00;56.70;;;;;;4989463;28;46524;-69
2023/01/17 03:19:36;;;;;;;2.60;0.80;;;0.90;56.70;;;;;;4988553;28;46305;-69
2023/01/17 03:22:02;;;;;;;1.20;0.70;;;0.90;56.80;;;;;;4991629;28;46422;-69
2023/01/17 03:24:28;;;;;;;0.80;0.60;;;0.90;56.90;;;;;;4993746;28;45892;-69
2023/01/17 03:26:53;;;;;;;0.90;0.63;;;0.90;57.00;;;;;;4993491;28;46485;-69
2023/01/17 03:29:19;;;;;;;2.50;0.70;;;0.80;57.00;;;;;;4991458;28;46425;-69
2023/01/17 03:31:45;;;;;;;1.43;0.60;;;0.90;56.90;;;;;;4993222;28;46449;-69
2023/01/17 03:34:11;;;;;;;0.90;0.60;;;0.90;56.80;;;;;;4991840;28;46462;-68
2023/01/17 03:36:37;;;;;;;3.13;0.60;;;0.90;56.70;;;;;;4989369;28;46609;-69
2023/01/17 03:39:02;;;;;;;1.57;0.90;;;0.90;56.80;;;;;;4991899;28;46656;-70
2023/01/17 03:41:28;;;;;;;2.00;0.73;;;1.00;56.80;;;;;;4992838;28;46860;-69
2023/01/17 03:43:54;;;;;;;0.90;0.67;;;0.90;56.60;;;;;;4990217;28;46736;-68
2023/01/17 03:46:22;;;;;;;1.00;0.60;;;0.90;56.70;;;;;;4992790;28;46402;-68
2023/01/17 03:48:48;;;;;;;1.60;0.70;;;0.90;56.80;;;;;;4994444;28;46373;-69
2023/01/17 03:51:14;;;;;;;1.10;0.60;;;0.80;56.80;;;;;;4993289;28;47014;-68
2023/01/17 03:53:39;;;;;;;0.90;0.67;;;0.90;56.60;;;;;;4994725;28;46920;-68
2023/01/17 03:56:05;;;;;;;1.60;0.70;;;0.90;56.50;;;;;;4992920;28;45862;-68
2023/01/17 03:58:31;;;;;;;0.93;0.60;;;0.90;56.20;;;;;;4993120;28;46483;-68
2023/01/17 04:00:57;;;;;;;3.33;0.87;;;0.90;56.40;;;;;;4992467;28;47214;-69
2023/01/17 04:03:22;;;;;;;3.00;0.80;;;0.90;56.60;;;;;;4992724;28;46417;-68
2023/01/17 04:05:48;;;;;;;4.00;0.80;;;0.80;56.50;;;;;;4991870;28;46365;-68
2023/01/17 04:08:13;;;;;;;6.50;2.50;;;0.80;56.80;;;;;;4994269;28;46505;-68
2023/01/17 04:10:39;;;;;;;3.83;1.50;;;0.80;56.90;;;;;;4992968;28;46487;-68
2023/01/17 04:13:04;;;;;;;0.90;0.70;;;0.80;57.00;;;;;;4992591;28;46528;-69
2023/01/17 04:15:31;;;;;;;1.03;0.73;;;0.80;56.70;;;;;;4992315;28;46539;-69
2023/01/17 04:17:57;;;;;;;1.10;0.73;;;0.90;56.50;;;;;;4992489;28;46430;-68
2023/01/17 04:20:32;;;;;;;1.50;0.83;;;1.00;56.40;;;;;;4991324;28;46394;-68
2023/01/17 04:22:58;;;;;;;3.10;0.90;;;0.90;56.20;;;;;;4993004;28;46339;-69
2023/01/17 04:25:24;;;;;;;1.90;0.70;;;1.00;56.20;;;;;;4991948;28;46929;-70
2023/01/17 04:27:53;;;;;;;1.63;0.90;;;1.10;56.10;;;;;;4994151;28;46347;-69
2023/01/17 04:30:19;;;;;;;0.90;0.70;;;1.10;56.30;;;;;;4990995;28;46343;-70
2023/01/17 04:32:44;;;;;;;1.30;0.70;;;1.00;56.50;;;;;;4991990;28;46542;-69
2023/01/17 04:35:10;;;;;;;0.80;0.60;;;1.10;56.60;;;;;;4992876;28;46639;-69
2023/01/17 04:37:36;;;;;;;1.20;0.80;;;1.20;56.50;;;;;;4992758;28;46453;-69
2023/01/17 04:40:03;;;;;;;4.43;0.73;;;1.30;56.60;;;;;;4993560;28;46414;-68
2023/01/17 04:42:28;;;;;;;1.10;0.70;;;1.10;56.80;;;;;;4993196;28;46362;-68
2023/01/17 04:44:54;;;;;;;1.03;0.70;;;0.90;57.10;;;;;;4993551;28;46477;-68
2023/01/17 04:47:20;;;;;;;1.10;0.70;;;0.90;57.70;;;;;;4992620;28;46406;-68
2023/01/17 04:49:45;;;;;;;1.40;0.70;;;0.90;57.60;;;;;;4991166;28;46429;-68
2023/01/17 04:52:11;;;;;;;2.90;1.07;;;1.10;57.10;;;;;;4993448;28;46421;-69
2023/01/17 04:54:37;;;;;;;1.63;0.70;;;1.20;56.40;;;;;;4991566;28;46478;-69
2023/01/17 04:57:02;;;;;;;2.80;0.70;;;1.10;57.40;;;;;;4991726;28;46618;-68
2023/01/17 04:59:28;;;;;;;2.60;0.70;;;0.90;56.60;;;;;;4993201;28;46774;-69
2023/01/17 05:01:53;;;;;;;1.10;0.70;;;0.80;57.10;;;;;;4992812;28;46475;-68
2023/01/17 05:04:19;;;;;;;2.57;0.90;;;0.70;57.50;;;;;;4992629;28;46351;-68
2023/01/17 05:06:45;;;;;;;2.63;0.80;;;0.60;57.40;;;;;;4991954;28;46543;-69
2023/01/17 05:09:10;;;;;;;4.70;1.23;;;0.50;57.40;;;;;;4990945;28;47372;-68
2023/01/17 05:11:36;;;;;;;1.90;0.70;;;0.50;57.80;;;;;;4991226;28;46434;-68
2023/01/17 05:14:01;;;;;;;1.80;1.07;;;0.50;57.90;;;;;;4992206;28;46389;-69
2023/01/17 05:16:27;;;;;;;2.50;0.80;;;0.70;57.50;;;;;;4990728;28;45863;-68
2023/01/17 05:18:53;;;;;;;2.37;1.00;;;0.80;57.60;;;;;;4994071;28;46608;-70
2023/01/17 05:21:20;;;;;;;2.90;0.98;;;0.90;57.70;;;;;;4987372;28;46529;-70
2023/01/17 05:23:46;;;;;;;1.27;0.70;;;0.80;57.60;;;;;;4987254;28;46526;-70
2023/01/17 05:26:11;;;;;;;1.23;0.73;;;0.80;57.60;;;;;;4989441;28;46018;-65
2023/01/17 05:28:37;;;;;;;2.93;1.17;;;0.70;57.80;;;;;;4986585;28;47456;-65
2023/01/17 05:31:03;;;;;;;2.30;1.05;;;0.70;58.30;;;;;;4988441;28;46457;-65
2023/01/17 05:33:29;;;;;;;3.57;1.10;;;0.60;58.60;;;;;;4988753;28;46550;-67
2023/01/17 05:35:55;;;;;;;1.50;0.90;;;0.60;58.80;;;;;;4988904;28;46473;-67
2023/01/17 05:38:22;;;;;;;2.13;1.07;;;0.50;59.00;;;;;;4992353;28;46497;-66
2023/01/17 05:40:47;;;;;;;1.45;0.82;;;0.50;59.20;;;;;;4991955;28;46402;-66
2023/01/17 05:43:13;;;;;;;1.10;0.90;;;0.50;59.40;;;;;;4989277;28;46362;-65
2023/01/17 05:45:39;;;;;;;2.03;0.90;;;0.50;59.60;;;;;;4993418;28;46495;-66
2023/01/17 05:48:05;;;;;;;3.07;1.17;;;0.50;59.70;;;;;;4991161;28;46154;-64
2023/01/17 05:50:36;;;;;;;2.30;1.00;;;0.50;59.90;;;;;;4990086;28;46385;-66
2023/01/17 05:53:07;;;;;;;4.00;1.30;;;0.50;59.90;;;;;;4990819;28;46374;-66
2023/01/17 05:55:33;;;;;;;1.48;1.00;;;0.50;59.70;;;;;;4990687;28;46394;-65
2023/01/17 05:58:00;;;;;;;1.30;0.90;;;0.50;59.80;;;;;;4991227;28;46442;-63
2023/01/17 06:00:26;;;;;;;2.08;0.85;;;0.60;60.00;;;;;;4991677;28;46323;-64
2023/01/17 06:02:54;;;;;;;3.17;1.25;;;0.40;60.00;;;;;;4992728;28;46414;-64
2023/01/17 06:05:20;;;;;;;1.20;1.00;;;0.40;60.00;;;;;;4992502;28;46367;-63
2023/01/17 06:07:46;;;;;;;1.75;1.25;;;0.40;60.00;;;;;;4990260;28;47022;-65
2023/01/17 06:10:13;;;;;;;1.97;1.00;;;0.40;60.20;;;;;;4994305;28;46488;-65
2023/01/17 06:12:39;;;;;;;1.67;1.20;;;0.30;60.40;;;;;;4992486;28;45839;-64
2023/01/17 06:15:06;;;;;;;1.85;1.00;;;0.40;60.40;;;;;;4991143;28;46583;-65
2023/01/17 06:17:31;;;;;;;3.22;1.20;;;0.20;60.30;;;;;;4989781;28;46006;-69
2023/01/17 06:19:57;;;;;;;1.10;0.97;;;0.10;60.30;;;;;;4991747;28;45829;-65
2023/01/17 06:22:23;;;;;;;1.85;1.00;;;0.10;60.50;;;;;;4989971;28;46425;-64
2023/01/17 06:24:49;;;;;;;4.80;1.10;;;0.00;60.40;;;;;;4990103;28;46303;-64
2023/01/17 06:27:14;;;;;;;2.13;0.97;;;-0.10;60.50;;;;;;4990686;28;46446;-64
2023/01/17 06:29:40;;;;;;;2.60;1.73;;;-0.20;60.50;;;;;;4991976;28;45810;-64
2023/01/17 06:32:06;;;;;;;2.07;1.20;;;-0.20;60.70;;;;;;4993410;28;46470;-64
2023/01/17 06:34:31;;;;;;;4.30;1.90;;;-0.20;60.50;;;;;;4991153;28;46064;-64
2023/01/17 06:36:57;;;;;;;5.17;2.37;;;-0.20;60.50;;;;;;4990311;28;46508;-64
2023/01/17 06:39:23;;;;;;;4.05;1.50;;;-0.10;60.20;;;;;;4991127;28;45872;-64
2023/01/17 06:41:48;;;;;;;4.17;1.53;;;-0.20;60.10;;;;;;4991158;28;46395;-64
2023/01/17 06:44:14;;;;;;;8.27;1.97;;;-0.20;60.00;;;;;;4991916;28;46430;-65
2023/01/17 06:46:40;;;;;;;2.30;1.63;;;-0.20;60.00;;;;;;4989427;28;46418;-64
2023/01/17 06:49:05;;;;;;;2.80;1.40;;;-0.20;60.00;;;;;;4991468;28;46517;-65
2023/01/17 06:51:31;;;;;;;2.30;1.37;;;-0.30;60.00;;;;;;4992313;28;46419;-65
2023/01/17 06:53:57;;;;;;;3.47;1.50;;;-0.40;60.30;;;;;;4990245;28;46386;-64
2023/01/17 06:56:22;;;;;;;2.77;1.47;;;-0.40;60.40;;;;;;4991289;28;47344;-65
2023/01/17 06:58:51;;;;;;;9.50;1.97;;;-0.50;60.30;;;;;;4992967;28;46382;-66
2023/01/17 07:01:17;;;;;;;2.67;1.77;;;-0.50;60.20;;;;;;4993551;28;46425;-64
2023/01/17 07:03:43;;;;;;;12.45;3.70;;;-0.60;60.00;;;;;;4995365;28;46626;-66
2023/01/17 07:06:09;;;;;;;11.60;4.60;;;-0.50;60.00;;;;;;4992274;28;47009;-66
2023/01/17 07:08:35;;;;;;;9.30;3.80;;;-0.50;60.00;;;;;;4993043;28;46562;-66
2023/01/17 07:11:03;;;;;;;6.00;3.50;;;-0.40;60.00;;;;;;4994353;28;46497;-64
2023/01/17 07:13:29;;;;;;;9.18;4.78;;;-0.40;60.00;;;;;;4994377;28;46450;-65
2023/01/17 07:15:55;;;;;;;9.25;5.32;;;-0.20;60.00;;;;;;4993099;28;47096;-66
2023/01/17 07:18:24;;;;;;;8.80;4.00;;;-0.30;59.90;;;;;;4993179;28;46260;-65
2023/01/17 07:20:50;;;;;;;9.98;4.00;;;-0.30;59.90;;;;;;4993742;28;46473;-65
2023/01/17 07:23:16;;;;;;;6.45;4.00;;;-0.20;59.90;;;;;;4990158;28;46424;-65
2023/01/17 07:25:41;;;;;;;6.10;4.03;;;-0.20;59.70;;;;;;4992233;28;46288;-65
2023/01/17 07:28:07;;;;;;;7.67;4.77;;;-0.20;59.70;;;;;;4992931;28;46449;-65
2023/01/17 07:30:34;;;;;;;8.77;4.23;;;-0.20;59.60;;;;;;4994898;28;46291;-65
2023/01/17 07:33:00;;;;;;;10.18;4.93;;;-0.20;59.50;;;;;;4994800;28;45931;-66
2023/01/17 07:35:26;;;;;;;5.72;3.70;;;-0.10;59.50;;;;;;4994042;28;46402;-66
2023/01/17 07:37:53;;;;;;;2.60;1.60;;;-0.10;59.30;;;;;;4992982;28;46447;-65
2023/01/17 07:40:21;;;;;;;4.15;2.35;;;0.10;59.30;;;;;;4994277;28;45787;-65
2023/01/17 07:42:47;;;;;;;4.65;1.80;;;0.10;59.20;;;;;;4991851;28;46456;-66
2023/01/17 07:45:14;;;;;;;2.63;1.50;;;0.10;59.20;;;;;;4992794;28;46381;-65
2023/01/17 07:47:39;;;;;;;2.22;1.60;;;0.20;59.10;;;;;;4991318;28;46432;-65
2023/01/17 07:50:06;;;;;;;2.73;1.50;;;0.20;59.00;;;;;;4993320;28;46307;-64
2023/01/17 07:52:32;;;;;;;2.53;1.77;;;0.20;58.80;;;;;;4991579;28;46437;-64
2023/01/17 07:54:57;;;;;;;4.43;1.80;;;0.40;59.00;;;;;;4994126;28;47002;-64
2023/01/17 07:57:23;;;;;;;2.27;1.53;;;0.40;59.10;;;;;;4993451;28;46462;-65
2023/01/17 07:59:51;;;;;;;3.67;2.03;;;0.50;59.20;;;;;;4993002;28;46488;-64
2023/01/17 08:02:19;;;;;;;2.28;1.70;;;0.50;59.00;;;;;;4992975;28;45819;-64
2023/01/17 08:04:46;;;;;;;3.95;1.50;;;0.60;58.90;;;;;;4992994;28;47152;-65
2023/01/17 08:07:12;;;;;;;3.58;1.27;;;0.80;59.10;;;;;;4993732;28;45973;-65
2023/01/17 08:09:39;;;;;;;3.17;1.45;;;0.70;58.80;;;;;;4992110;28;46551;-65
2023/01/17 08:12:05;;;;;;;6.25;2.50;;;0.80;58.80;;;;;;4992850;28;46561;-66
2023/01/17 08:14:31;;;;;;;3.90;2.43;;;0.90;58.80;;;;;;4993672;28;45994;-66
2023/01/17 08:17:10;;;;;;;3.47;2.27;;;0.90;58.70;;;;;;4992303;28;45925;-65
2023/01/17 08:19:36;;;;;;;3.70;1.65;;;1.10;58.60;;;;;;4992889;28;46397;-65
2023/01/17 08:22:02;;;;;;;3.90;2.03;;;1.20;58.30;;;;;;4994117;28;46591;-65
2023/01/17 08:24:28;;;;;;;3.63;1.50;;;1.40;58.10;;;;;;4992120;28;46449;-65
2023/01/17 08:26:55;;;;;;;5.83;1.90;;;1.50;58.00;;;;;;4992791;28;46450;-66
2023/01/17 08:29:21;;;;;;;5.43;2.70;;;1.70;57.50;;;;;;4991746;28;46437;-66
2023/01/17 08:31:46;;;;;;;10.32;3.95;;;1.80;57.10;;;;;;4993545;28;46512;-66
2023/01/17 08:34:13;;;;;;;6.90;2.77;;;2.00;56.70;;;;;;4991600;28;46376;-66
2023/01/17 08:36:39;;;;;;;6.82;2.60;;;2.30;56.60;;;;;;4991452;28;46447;-64
2023/01/17 08:39:05;;;;;;;4.47;1.77;;;2.30;56.10;;;;;;4991272;28;46498;-66
2023/01/17 08:41:31;;;;;;;2.50;1.10;;;2.40;55.90;;;;;;4993137;28;46512;-65
2023/01/17 08:43:56;;;;;;;1.87;1.30;;;2.70;55.80;;;;;;4991662;28;46443;-66
2023/01/17 08:46:23;;;;;;;2.90;1.50;;;2.70;55.60;;;;;;4992225;28;46455;-66
2023/01/17 08:48:54;;;;;;;6.07;1.50;;;2.70;55.60;;;;;;4992872;28;45909;-66
2023/01/17 08:51:20;;;;;;;3.13;1.50;;;2.80;55.80;;;;;;4993244;28;46371;-66
2023/01/17 08:53:47;;;;;;;2.53;1.40;;;3.00;55.10;;;;;;4991814;28;46578;-65
2023/01/17 08:56:13;;;;;;;6.15;2.15;;;3.10;55.00;;;;;;4990395;28;46082;-65
2023/01/17 08:58:40;;;;;;;3.40;1.47;;;3.20;54.80;;;;;;4991820;28;46505;-65
2023/01/17 09:01:06;;;;;;;4.80;1.65;;;3.30;54.80;;;;;;4992668;28;46143;-66
2023/01/17 09:03:33;;;;;;;5.90;2.10;;;3.30;54.80;;;;;;4991754;28;46529;-66
2023/01/17 09:06:07;;;;;;;3.83;1.30;;;3.30;54.80;;;;;;4991222;28;46410;-66
2023/01/17 09:08:33;;;;;;;4.28;1.80;;;3.40;54.90;;;;;;4990980;28;46496;-65
2023/01/17 09:11:06;;;;;;;4.25;2.03;;;3.50;55.00;;;;;;4990240;28;46371;-66
2023/01/17 09:13:32;;;;;;;3.38;2.00;;;3.60;54.70;;;;;;4992454;28;47217;-65
2023/01/17 09:15:58;;;;;;;2.70;1.73;;;3.60;55.70;;;;;;4993368;28;46447;-66
2023/01/17 09:18:25;;;;;;;4.72;1.95;;;3.70;54.50;;;;;;4990885;28;46406;-67
2023/01/17 09:20:53;;;;;;;4.00;1.80;;;3.70;54.40;;;;;;4992514;28;46540;-66
2023/01/17 09:23:20;;;;;;;5.07;1.80;;;3.80;54.20;;;;;;4991881;28;46408;-66
2023/01/17 09:25:53;;;;;;;4.13;1.88;;;3.90;54.00;;;;;;4991607;28;46570;-65
2023/01/17 09:28:20;;;;;;;5.65;2.55;;;3.90;53.80;;;;;;4991299;28;46449;-65
2023/01/17 09:30:46;;;;;;;7.43;2.13;;;4.00;53.80;;;;;;4989135;28;46367;-65
2023/01/17 09:33:12;;;;;;;4.23;2.40;;;4.00;53.80;;;;;;4991249;28;46530;-65
2023/01/17 09:35:37;;;;;;;4.20;2.17;;;4.10;53.50;;;;;;4992374;28;46810;-65
2023/01/17 09:38:03;;;;;;;2.60;1.30;;;4.30;52.90;;;;;;4990441;28;46576;-67
2023/01/17 09:40:29;;;;;;;2.20;1.07;;;4.40;52.20;;;;;;4992036;28;46311;-66
2023/01/17 09:43:02;;;;;;;2.73;1.40;;;4.60;51.90;;;;;;4990033;28;47070;-66
2023/01/17 09:45:32;;;;;;;1.80;1.17;;;4.70;51.50;;;;;;4991326;28;46456;-66
2023/01/17 09:48:01;;;;;;;3.20;1.30;;;4.80;51.20;;;;;;4989243;28;46430;-67
2023/01/17 09:50:33;;;;;;;2.40;1.40;;;4.80;50.80;;;;;;4989487;28;46419;-66
2023/01/17 09:53:19;;;;;;;1.90;1.00;;;5.00;50.80;;;;;;4990674;28;47204;-67
2023/01/17 09:56:03;;;;;;;2.27;0.90;;;5.20;50.10;;;;;;4989734;28;45902;-67
2023/01/17 09:58:38;;;;;;;2.33;1.00;;;5.20;49.40;;;;;;4992707;28;46501;-66
2023/01/17 10:01:25;;;;;;;2.10;1.03;;;5.10;49.60;;;;;;4991412;28;46627;-67
2023/01/17 10:04:16;;;;;;;3.60;1.37;;;5.10;48.80;;;;;;4990788;28;47153;-67
2023/01/17 10:07:04;;;;;;;3.33;1.87;;;5.00;48.40;;;;;;4991587;28;46517;-67
2023/01/17 10:09:45;;;;;;;2.80;1.13;;;5.20;48.50;;;;;;4991579;28;46523;-66
2023/01/17 10:12:17;;;;;;;7.10;1.57;;;5.30;47.40;;;;;;4991095;28;46587;-67
2023/01/17 10:15:01;;;;;;;6.30;0.77;;;5.20;48.50;;;;;;4991240;28;46457;-67
2023/01/17 10:17:43;;;;;;;1.73;0.80;;;5.10;47.80;;;;;;4988782;28;46375;-67
2023/01/17 10:20:36;;;;;;;2.20;1.00;;;5.10;47.20;;;;;;4990626;28;46445;-66
2023/01/17 10:23:20;;;;;;;1.73;1.07;;;5.10;46.60;;;;;;4990632;28;46381;-66
2023/01/17 10:25:51;;;;;;;3.57;1.93;;;5.10;46.10;;;;;;4990514;28;47088;-65
2023/01/17 10:28:39;;;;;;;3.93;1.00;;;5.10;46.20;;;;;;4991189;28;46462;-66
2023/01/17 10:31:17;;;;;;;1.73;0.90;;;5.00;46.00;;;;;;4992929;28;46513;-66
2023/01/17 10:33:59;;;;;;;1.60;0.70;;;4.90;44.40;;;;;;4994224;28;46453;-67
2023/01/17 10:36:28;;;;;;;3.20;0.70;;;4.90;43.50;;;;;;4993564;28;47093;-67
2023/01/17 10:39:00;;;;;;;2.40;0.80;;;4.80;42.60;;;;;;4994045;28;46426;-66
2023/01/17 10:41:36;;;;;;;1.30;0.77;;;4.90;42.50;;;;;;4995186;28;46673;-66
2023/01/17 10:44:16;;;;;;;7.43;1.03;;;4.90;42.00;;;;;;4994501;28;46473;-65
2023/01/17 10:46:48;;;;;;;1.53;0.80;;;5.10;41.60;;;;;;4994242;28;46637;-66
2023/01/17 10:49:19;;;;;;;3.97;0.87;;;5.10;41.50;;;;;;4993778;28;46564;-66
2023/01/17 10:52:07;;;;;;;2.03;0.90;;;5.20;41.30;;;;;;4995012;28;46377;-67
2023/01/17 10:54:38;;;;;;;5.97;0.90;;;5.30;40.90;;;;;;4994416;28;46587;-65
2023/01/17 10:57:04;;;;;;;1.00;0.70;;;5.40;41.40;;;;;;4992850;28;46350;-66
2023/01/17 10:59:32;;;;;;;3.07;1.30;;;5.40;41.40;;;;;;4995309;28;46411;-67
2023/01/17 11:01:58;;;;;;;2.23;1.20;;;5.40;41.70;;;;;;4993551;28;46406;-66
2023/01/17 11:04:30;;;;;;;3.17;1.00;;;5.30;41.00;;;;;;4992283;28;46390;-65
2023/01/17 11:07:12;;;;;;;6.30;1.00;;;5.30;41.10;;;;;;4993015;28;47285;-67
2023/01/17 11:09:45;;;;;;;2.13;0.77;;;5.30;40.20;;;;;;4992758;28;46391;-66
2023/01/17 11:12:27;;;;;;;2.60;0.80;;;5.20;40.20;;;;;;4993149;28;46790;-67
2023/01/17 11:15:08;;;;;;;2.90;1.10;;;5.20;39.60;;;;;;4994506;28;46390;-67
2023/01/17 11:17:45;;;;;;;3.43;1.63;;;5.30;39.60;;;;;;4993641;28;46971;-67
2023/01/17 11:20:18;;;;;;;4.60;2.10;;;5.40;39.60;;;;;;4993064;28;46399;-66
2023/01/17 11:23:06;;;;;;;3.00;1.57;;;5.30;38.80;;;;;;4992699;28;46899;-67
2023/01/17 11:25:33;;;;;;;4.40;1.77;;;5.20;39.10;;;;;;4992732;28;46360;-64
2023/01/17 11:28:18;;;;;;;6.63;1.00;;;5.10;39.10;;;;;;4994956;28;46441;-66
2023/01/17 11:31:07;;;;;;;1.20;0.67;;;4.90;38.50;;;;;;4993383;28;46745;-66
2023/01/17 11:33:44;;;;;;;3.93;0.70;;;4.80;37.80;;;;;;4995808;28;46437;-66
2023/01/17 11:36:29;;;;;;;1.60;0.90;;;4.70;37.70;;;;;;4996563;28;46513;-65
2023/01/17 11:39:04;;;;;;;1.73;1.03;;;4.70;37.60;;;;;;4993186;28;46139;-66
2023/01/17 11:41:34;;;;;;;2.53;0.80;;;4.70;37.40;;;;;;4991553;28;46367;-66
2023/01/17 11:44:01;;;;;;;2.67;1.00;;;4.60;37.20;;;;;;4994190;28;46429;-66
2023/01/17 11:46:28;;;;;;;5.93;0.93;;;4.70;37.70;;;;;;4993607;28;45965;-66
2023/01/17 11:48:58;;;;;;;2.37;1.30;;;4.70;37.60;;;;;;4994279;28;46760;-66
2023/01/17 11:51:31;;;;;;;5.70;1.67;;;4.70;37.50;;;;;;4993055;28;45962;-66
2023/01/17 11:54:27;;;;;;;7.80;1.80;;;4.80;37.20;;;;;;4993089;28;45843;-66
2023/01/17 11:57:00;;;;;;;1.87;1.07;;;4.90;37.30;;;;;;4994069;28;46454;-66
2023/01/17 11:59:25;;;;;;;1.53;0.80;;;5.00;37.30;;;;;;4993803;28;47153;-67
2023/01/17 12:01:57;;;;;;;3.00;1.03;;;5.10;37.10;;;;;;4994512;28;46561;-67
2023/01/17 12:04:46;;;;;;;1.63;0.83;;;4.90;36.60;;;;;;4992662;28;46456;-67
2023/01/17 12:07:33;;;;;;;2.50;1.10;;;4.80;36.10;;;;;;4992107;28;46691;-67
2023/01/17 12:10:14;;;;;;;1.40;0.90;;;4.90;36.00;;;;;;4992345;28;46457;-67
2023/01/17 12:16:00;;;;;;;1.37;0.80;;;4.80;35.80;;;;;;4993309;28;46603;-65
2023/01/17 12:18:39;;;;;;;3.00;0.90;;;4.80;35.90;;;;;;4991811;28;46452;-67
2023/01/17 12:21:21;;;;;;;6.33;1.00;;;4.90;36.10;;;;;;4991474;28;46421;-66
2023/01/17 12:24:22;;;;;;;2.53;0.97;;;4.80;35.90;;;;;;4992184;28;46410;-66
2023/01/17 12:27:09;;;;;;;1.30;0.80;;;4.80;35.60;;;;;;4990879;28;45842;-66
2023/01/17 12:29:57;;;;;;;2.43;1.23;;;4.80;36.00;;;;;;4991071;28;46406;-67
2023/01/17 12:32:44;;;;;;;1.50;0.80;;;4.80;35.00;;;;;;4991630;28;47077;-66
2023/01/17 12:35:18;;;;;;;2.17;1.17;;;4.80;35.50;;;;;;4991275;28;46328;-66
2023/01/17 12:37:49;;;;;;;2.53;1.07;;;4.90;35.70;;;;;;4990764;28;46536;-66
2023/01/17 12:40:26;;;;;;;3.90;1.40;;;4.90;35.50;;;;;;4992459;28;46682;-66
2023/01/17 12:43:00;;;;;;;1.70;0.90;;;5.00;35.20;;;;;;4992395;28;46365;-66
2023/01/17 12:45:38;;;;;;;2.63;0.93;;;5.10;35.20;;;;;;4991768;28;46742;-67
2023/01/17 12:48:12;;;;;;;2.40;1.27;;;5.00;35.10;;;;;;4991083;28;46469;-67
2023/01/17 12:50:51;;;;;;;3.90;1.23;;;4.90;35.00;;;;;;4993076;28;46437;-67
2023/01/17 12:53:40;;;;;;;3.90;1.40;;;5.00;35.50;;;;;;4991985;28;46713;-67
2023/01/17 12:56:15;;;;;;;2.03;1.10;;;4.90;35.80;;;;;;4990993;28;46432;-67
2023/01/17 12:58:49;;;;;;;1.47;0.90;;;5.00;35.90;;;;;;4992634;28;46422;-66
2023/01/17 13:01:28;;;;;;;2.10;1.10;;;4.90;35.30;;;;;;4992742;28;46878;-66
2023/01/17 13:04:15;;;;;;;3.07;1.03;;;4.80;35.50;;;;;;4993233;28;46541;-66
2023/01/17 13:06:52;;;;;;;2.27;1.20;;;4.70;35.70;;;;;;4991317;28;46420;-65
2023/01/17 13:09:21;;;;;;;4.40;1.07;;;4.70;35.80;;;;;;4993242;28;46418;-67
2023/01/17 13:11:51;;;;;;;1.93;1.00;;;4.70;36.10;;;;;;4991272;28;46412;-66
2023/01/17 13:14:17;;;;;;;1.60;1.10;;;4.70;36.30;;;;;;4990452;28;48052;-67
2023/01/17 13:16:53;;;;;;;5.13;1.50;;;4.60;36.30;;;;;;4992814;28;45933;-67
2023/01/17 13:19:52;;;;;;;8.30;1.53;;;4.60;36.60;;;;;;4991476;28;46456;-67
2023/01/17 13:22:19;;;;;;;5.23;1.80;;;4.70;36.90;;;;;;4993233;28;45840;-67
2023/01/17 13:25:28;;;;;;;2.90;1.60;;;4.60;36.60;;;;;;4992397;28;47910;-66
2023/01/17 13:28:16;;;;;;;5.40;3.10;;;4.70;36.80;;;;;;4991704;28;46457;-67
2023/01/17 13:31:02;;;;;;;8.23;2.47;;;4.70;36.60;;;;;;4992140;28;45831;-67
2023/01/17 13:34:05;;;;;;;2.73;1.60;;;4.70;36.40;;;;;;4992064;28;46350;-66
2023/01/17 13:36:57;;;;;;;5.77;2.80;;;4.80;36.10;;;;;;4990898;28;46370;-66
2023/01/17 13:39:52;;;;;;;2.80;1.40;;;4.70;36.30;;;;;;4991064;28;46437;-65
2023/01/17 13:42:27;;;;;;;3.57;1.07;;;4.70;36.60;;;;;;4992119;28;45868;-68
2023/01/17 13:44:54;;;;;;;2.60;1.00;;;4.70;36.70;;;;;;4991484;28;46478;-67
2023/01/17 13:47:20;;;;;;;2.60;1.10;;;4.60;36.60;;;;;;4990589;28;47001;-67
2023/01/17 13:49:48;;;;;;;8.90;0.97;;;4.50;36.60;;;;;;4988613;28;46507;-67
2023/01/17 13:52:19;;;;;;;2.10;1.00;;;4.50;36.90;;;;;;4990855;28;46458;-66
2023/01/17 13:55:00;;;;;;;3.40;0.90;;;4.50;36.60;;;;;;4991929;28;46449;-67
2023/01/17 13:57:27;;;;;;;3.73;1.10;;;4.40;36.80;;;;;;4992113;28;46694;-67
2023/01/17 13:59:54;;;;;;;2.30;0.90;;;4.30;36.90;;;;;;4996331;28;46344;-67
2023/01/17 14:02:31;;;;;;;1.80;1.13;;;4.30;36.80;;;;;;4993098;28;46430;-67
2023/01/17 14:05:13;;;;;;;1.90;1.30;;;4.30;37.00;;;;;;4990631;28;46743;-67
2023/01/17 14:07:59;;;;;;;1.30;1.00;;;4.10;36.90;;;;;;4990667;28;47134;-67
2023/01/17 14:10:27;;;;;;;1.63;0.80;;;4.00;36.90;;;;;;5001841;28;46436;-67
2023/01/17 14:12:54;;;;;;;2.80;1.10;;;3.90;37.10;;;;;;4990829;28;46486;-65
2023/01/17 14:15:24;;;;;;;1.70;0.70;;;3.70;37.40;;;;;;4991944;28;46366;-71
2023/01/17 14:17:57;;;;;;;2.30;1.03;;;3.60;37.70;;;;;;4986079;28;47397;-64
2023/01/17 14:20:25;;;;;;;3.15;0.85;;;3.50;38.00;;;;;;4989130;28;46864;-66
2023/01/17 14:22:54;;;;;;;3.17;0.90;;;3.40;38.40;;;;;;4990927;28;46507;-66
2023/01/17 14:25:38;;;;;;;2.67;1.43;;;3.40;38.80;;;;;;4991456;28;46688;-66
2023/01/17 14:28:19;;;;;;;1.13;0.70;;;3.30;39.20;;;;;;4988457;28;46414;-66
2023/01/17 14:30:47;;;;;;;1.65;0.82;;;3.30;39.30;;;;;;4989559;28;46615;-67
2023/01/17 14:33:21;;;;;;;2.80;0.90;;;3.30;39.40;;;;;;4987045;28;45777;-61
2023/01/17 14:35:56;;;;;;;2.63;1.30;;;3.30;39.40;;;;;;4984279;28;45930;-61
2023/01/17 14:38:31;;;;;;;3.97;1.10;;;3.30;39.60;;;;;;4986876;28;47250;-61
2023/01/17 14:40:58;;;;;;;1.80;1.08;;;3.30;39.60;;;;;;4988367;28;46457;-63